Time;durP1;ratioP1;P1;durP2;ratioP2;P2;SDS_P1;SDS_P2;PMS_P1;PMS_P2;Temp;Humidity;BMP_temperature;BMP_pressure;BME280_temperature;BME280_humidity;BME280_pressure;Samples;Min_cycle;Max_cycle;Signal;HPM_P1;HPM_P2
2023/07/10 00:00:22;;;;;;;;;;;21.10;68.50;;;;;;4944000;28;1277;-71
2023/07/10 00:02:49;;;;;;;;;;;21.10;68.50;;;;;;4967824;28;1362;-70
2023/07/10 00:05:14;;;;;;;;;;;21.10;68.50;;;;;;4954732;28;900;-70
2023/07/10 00:07:40;;;;;;;;;;;21.10;68.50;;;;;;4970492;28;1408;-69
2023/07/10 00:10:07;;;;;;;;;;;21.10;68.50;;;;;;4970215;28;1232;-71
2023/07/10 00:12:32;;;;;;;;;;;21.10;68.50;;;;;;4971783;28;853;-71
2023/07/10 00:14:58;;;;;;;;;;;21.10;68.50;;;;;;4971509;28;1371;-71
2023/07/10 00:17:23;;;;;;;;;;;21.10;68.50;;;;;;4970539;28;1898;-71
2023/07/10 00:19:49;;;;;;;;;;;21.10;68.50;;;;;;4969167;28;1447;-70
2023/07/10 00:22:14;;;;;;;;;;;21.10;68.50;;;;;;4967972;28;860;-70
2023/07/10 00:24:40;;;;;;;;;;;21.10;68.50;;;;;;4968881;28;1224;-70
2023/07/10 00:27:10;;;;;;;;;;;21.10;68.50;;;;;;4971379;28;1229;-69
2023/07/10 00:29:35;;;;;;;;;;;21.10;68.50;;;;;;4971069;28;818;-69
2023/07/10 00:32:02;;;;;;;;;;;21.10;68.50;;;;;;4973603;28;923;-70
2023/07/10 00:34:27;;;;;;;;;;;21.10;68.50;;;;;;4974082;28;1241;-70
2023/07/10 00:36:53;;;;;;;;;;;21.10;68.50;;;;;;4990375;28;1902;-70
2023/07/10 00:39:19;;;;;;;;;;;21.10;69.30;;;;;;4973948;28;1249;-69
2023/07/10 00:41:44;;;;;;;;;;;21.10;68.50;;;;;;4975326;28;888;-69
2023/07/10 00:44:10;;;;;;;;;;;21.10;68.50;;;;;;4989495;28;1291;-70
2023/07/10 00:46:37;;;;;;;;;;;21.10;68.50;;;;;;4988182;28;961;-70
2023/07/10 00:49:08;;;;;;;;;;;21.10;68.50;;;;;;4990162;28;1083;-70
2023/07/10 00:51:36;;;;;;;;;;;21.10;68.50;;;;;;4989837;28;840;-70
2023/07/10 00:54:01;;;;;;;;;;;21.10;68.50;;;;;;4970978;28;1234;-70
2023/07/10 00:56:28;;;;;;;;;;;21.10;68.50;;;;;;4989029;28;1914;-69
2023/07/10 00:58:53;;;;;;;;;;;21.10;68.50;;;;;;4989000;28;912;-70
2023/07/10 01:01:20;;;;;;;;;;;21.10;68.50;;;;;;4972804;28;853;-70
2023/07/10 01:03:46;;;;;;;;;;;21.10;68.50;;;;;;4974337;28;1280;-69
2023/07/10 01:06:17;;;;;;;;;;;21.10;68.60;;;;;;4989639;28;916;-69
2023/07/10 01:08:47;;;;;;;;;;;21.10;68.60;;;;;;4970686;28;1265;-68
2023/07/10 01:11:13;;;;;;;;;;;21.10;68.50;;;;;;4966842;28;1357;-71
2023/07/10 01:13:39;;;;;;;;;;;21.10;68.50;;;;;;4987482;28;1411;-69
2023/07/10 01:16:04;;;;;;;;;;;21.10;68.50;;;;;;4968982;28;1902;-69
2023/07/10 01:18:30;;;;;;;;;;;21.20;68.60;;;;;;4970449;28;1393;-70
2023/07/10 01:21:14;;;;;;;;;;;21.10;68.50;;;;;;4968259;28;1325;-70
2023/07/10 01:23:40;;;;;;;;;;;21.10;68.60;;;;;;4973137;28;1421;-69
2023/07/10 01:26:05;;;;;;;;;;;21.10;68.50;;;;;;4974286;28;886;-68
2023/07/10 01:28:33;;;;;;;;;;;21.10;68.50;;;;;;4973193;28;938;-68
2023/07/10 01:30:59;;;;;;;;;;;21.20;68.60;;;;;;4969589;28;1321;-69
2023/07/10 01:33:25;;;;;;;;;;;21.10;68.60;;;;;;4965068;28;1351;-69
2023/07/10 01:35:51;;;;;;;;;;;21.10;68.50;;;;;;4986603;28;1097;-69
2023/07/10 01:38:17;;;;;;;;;;;21.10;68.50;;;;;;4974444;28;1968;-68
2023/07/10 01:40:48;;;;;;;;;;;21.10;68.50;;;;;;4974070;28;923;-69
2023/07/10 01:43:13;;;;;;;;;;;21.10;68.50;;;;;;4988993;28;1396;-68
2023/07/10 01:45:40;;;;;;;;;;;21.10;68.50;;;;;;4974535;28;1006;-68
2023/07/10 01:48:05;;;;;;;;;;;21.10;68.50;;;;;;4974217;28;1537;-68
2023/07/10 01:50:31;;;;;;;;;;;21.10;68.50;;;;;;4974244;28;896;-68
2023/07/10 01:52:56;;;;;;;;;;;21.10;68.60;;;;;;4973840;28;1339;-67
2023/07/10 01:55:22;;;;;;;;;;;21.10;68.60;;;;;;4973906;28;852;-68
2023/07/10 01:57:47;;;;;;;;;;;21.10;68.60;;;;;;4973504;28;1906;-67
2023/07/10 02:00:13;;;;;;;;;;;21.10;68.60;;;;;;4970855;28;936;-68
2023/07/10 02:02:38;;;;;;;;;;;21.10;68.50;;;;;;4965905;28;870;-69
2023/07/10 02:05:04;;;;;;;;;;;21.10;68.50;;;;;;4973638;28;1325;-69
2023/07/10 02:07:29;;;;;;;;;;;21.10;68.60;;;;;;4972807;28;904;-71
2023/07/10 02:09:55;;;;;;;;;;;21.10;68.50;;;;;;4973145;28;1443;-68
2023/07/10 02:12:20;;;;;;;;;;;21.10;68.60;;;;;;4973573;28;914;-69
2023/07/10 02:14:46;;;;;;;;;;;21.10;68.60;;;;;;4969585;28;1223;-70
2023/07/10 02:17:11;;;;;;;;;;;21.10;68.50;;;;;;4969801;28;1960;-70
2023/07/10 02:19:37;;;;;;;;;;;21.10;68.60;;;;;;4971321;28;1013;-67
2023/07/10 02:22:02;;;;;;;;;;;21.10;68.50;;;;;;4972739;28;833;-68
2023/07/10 02:24:28;;;;;;;;;;;21.10;68.50;;;;;;4973600;28;1342;-68
2023/07/10 02:26:53;;;;;;;;;;;21.10;69.30;;;;;;4973709;28;1027;-68
2023/07/10 02:29:19;;;;;;;;;;;21.10;68.60;;;;;;4973307;28;1004;-69
2023/07/10 02:31:44;;;;;;;;;;;21.10;68.60;;;;;;4972765;28;1558;-71
2023/07/10 02:34:10;;;;;;;;;;;21.10;68.60;;;;;;4970235;28;1418;-70
2023/07/10 02:36:35;;;;;;;;;;;21.10;68.60;;;;;;4972808;28;1899;-69
2023/07/10 02:39:01;;;;;;;;;;;21.10;68.60;;;;;;4973003;28;1325;-69
2023/07/10 02:41:26;;;;;;;;;;;21.10;68.60;;;;;;4986450;28;930;-68
2023/07/10 02:43:52;;;;;;;;;;;21.10;68.60;;;;;;4969908;28;1272;-68
2023/07/10 02:46:17;;;;;;;;;;;21.10;68.60;;;;;;4972781;28;865;-68
2023/07/10 02:48:43;;;;;;;;;;;21.10;68.60;;;;;;4970232;28;928;-70
2023/07/10 02:51:08;;;;;;;;;;;21.10;68.60;;;;;;4973705;28;1007;-68
2023/07/10 02:53:33;;;;;;;;;;;21.10;68.60;;;;;;4972899;28;1348;-69
2023/07/10 02:55:59;;;;;;;;;;;21.10;68.60;;;;;;4971279;28;880;-69
2023/07/10 02:58:24;;;;;;;;;;;21.10;68.70;;;;;;4986984;28;1902;-69
2023/07/10 03:00:59;;;;;;;;;;;21.10;68.60;;;;;;4969606;28;1505;-69
2023/07/10 03:03:25;;;;;;;;;;;21.10;68.60;;;;;;4971218;28;1278;-70
2023/07/10 03:05:57;;;;;;;;;;;21.10;68.60;;;;;;4971817;28;928;-70
2023/07/10 03:08:23;;;;;;;;;;;21.10;68.60;;;;;;4971815;28;848;-70
2023/07/10 03:10:48;;;;;;;;;;;21.10;68.60;;;;;;4969539;28;959;-70
2023/07/10 03:13:14;;;;;;;;;;;21.10;68.60;;;;;;4971184;28;1344;-70
2023/07/10 03:15:39;;;;;;;;;;;21.10;68.70;;;;;;4970881;28;866;-70
2023/07/10 03:18:05;;;;;;;;;;;21.10;68.60;;;;;;4970531;28;1902;-71
2023/07/10 03:20:30;;;;;;;;;;;21.10;68.70;;;;;;4972194;28;1596;-69
2023/07/10 03:22:56;;;;;;;;;;;21.10;68.60;;;;;;4971918;28;1257;-69
2023/07/10 03:25:21;;;;;;;;;;;21.10;68.60;;;;;;4971538;28;1357;-69
2023/07/10 03:27:48;;;;;;;;;;;21.10;68.60;;;;;;4971729;28;1295;-69
2023/07/10 03:30:13;;;;;;;;;;;21.10;68.70;;;;;;4988025;28;880;-69
2023/07/10 03:32:39;;;;;;;;;;;21.10;68.70;;;;;;4971898;28;1022;-69
2023/07/10 03:35:05;;;;;;;;;;;21.10;68.70;;;;;;4972198;28;1316;-70
2023/07/10 03:37:30;;;;;;;;;;;21.10;68.70;;;;;;4972185;28;1995;-69
2023/07/10 03:39:55;;;;;;;;;;;21.10;68.70;;;;;;4972163;28;844;-69
2023/07/10 03:42:21;;;;;;;;;;;21.10;68.70;;;;;;4971020;28;880;-70
2023/07/10 03:44:46;;;;;;;;;;;21.10;68.70;;;;;;4970875;28;1327;-69
2023/07/10 03:47:12;;;;;;;;;;;21.10;68.70;;;;;;4972164;28;927;-69
2023/07/10 03:49:37;;;;;;;;;;;21.10;68.70;;;;;;4972095;28;1358;-69
2023/07/10 03:52:04;;;;;;;;;;;21.10;68.70;;;;;;4971387;28;812;-69
2023/07/10 03:54:32;;;;;;;;;;;21.10;68.70;;;;;;4971705;28;1233;-69
2023/07/10 03:56:57;;;;;;;;;;;21.10;68.70;;;;;;4971838;28;1915;-70
2023/07/10 03:59:23;;;;;;;;;;;21.10;68.70;;;;;;4971897;28;944;-69
2023/07/10 04:01:48;;;;;;;;;;;21.10;68.70;;;;;;4970016;28;856;-69
2023/07/10 04:04:14;;;;;;;;;;;21.10;68.70;;;;;;4969296;28;1360;-69
2023/07/10 04:06:40;;;;;;;;;;;21.20;68.70;;;;;;4971007;28;1027;-68
2023/07/10 04:09:05;;;;;;;;;;;21.10;68.70;;;;;;4970662;28;919;-68
2023/07/10 04:11:31;;;;;;;;;;;21.10;68.70;;;;;;4971801;28;892;-69
2023/07/10 04:13:56;;;;;;;;;;;21.10;68.70;;;;;;4970633;28;2010;-69
2023/07/10 04:16:23;;;;;;;;;;;21.20;68.70;;;;;;4970276;28;2280;-70
2023/07/10 04:18:51;;;;;;;;;;;21.10;68.70;;;;;;4970270;28;1276;-69
2023/07/10 04:21:17;;;;;;;;;;;21.10;68.70;;;;;;4971149;28;1425;-68
2023/07/10 04:23:43;;;;;;;;;;;21.10;68.70;;;;;;4968486;28;1354;-69
2023/07/10 04:26:16;;;;;;;;;;;21.10;68.70;;;;;;4967678;28;2085;-71
2023/07/10 04:28:42;;;;;;;;;;;21.20;68.70;;;;;;4969131;28;1245;-69
2023/07/10 04:31:07;;;;;;;;;;;21.10;68.70;;;;;;4971359;28;1016;-71
2023/07/10 04:33:33;;;;;;;;;;;21.20;68.70;;;;;;4970155;28;1429;-67
2023/07/10 04:35:58;;;;;;;;;;;21.10;68.70;;;;;;4971529;28;892;-70
2023/07/10 04:38:24;;;;;;;;;;;21.20;68.70;;;;;;4971037;28;1910;-71
2023/07/10 04:40:50;;;;;;;;;;;21.10;68.70;;;;;;4971299;28;893;-71
2023/07/10 04:43:16;;;;;;;;;;;21.10;68.70;;;;;;4969997;28;1354;-72
2023/07/10 04:45:41;;;;;;;;;;;21.10;68.70;;;;;;4970468;28;967;-69
2023/07/10 04:48:07;;;;;;;;;;;21.10;68.70;;;;;;4969942;28;774;-68
2023/07/10 04:50:32;;;;;;;;;;;21.20;68.70;;;;;;4971113;28;968;-68
2023/07/10 04:52:58;;;;;;;;;;;21.10;68.70;;;;;;4970871;28;1332;-70
2023/07/10 04:55:23;;;;;;;;;;;21.10;68.70;;;;;;4971421;28;854;-67
2023/07/10 04:57:49;;;;;;;;;;;21.10;68.80;;;;;;4970769;28;1906;-67
2023/07/10 05:00:14;;;;;;;;;;;21.10;68.70;;;;;;4971333;28;952;-68
2023/07/10 05:02:40;;;;;;;;;;;21.10;68.80;;;;;;4985914;28;990;-67
2023/07/10 05:05:05;;;;;;;;;;;21.10;68.80;;;;;;4968882;28;1343;-69
2023/07/10 05:07:31;;;;;;;;;;;21.10;68.70;;;;;;4971409;28;878;-69
2023/07/10 05:09:56;;;;;;;;;;;21.20;68.80;;;;;;4971347;28;948;-69
2023/07/10 05:12:22;;;;;;;;;;;21.10;68.80;;;;;;4971417;28;1034;-70
2023/07/10 05:14:47;;;;;;;;;;;21.20;68.80;;;;;;4970075;28;1340;-72
2023/07/10 05:17:13;;;;;;;;;;;21.10;68.80;;;;;;4973951;28;1899;-73
2023/07/10 05:19:38;;;;;;;;;;;21.10;68.80;;;;;;4972695;28;1038;-70
2023/07/10 05:22:04;;;;;;;;;;;21.20;68.80;;;;;;4970592;28;960;-70
2023/07/10 05:24:29;;;;;;;;;;;21.20;68.80;;;;;;4972475;28;1297;-70
2023/07/10 05:26:55;;;;;;;;;;;21.10;68.80;;;;;;4974075;28;836;-70
2023/07/10 05:29:20;;;;;;;;;;;21.20;68.80;;;;;;4974542;28;1524;-70
2023/07/10 05:31:45;;;;;;;;;;;21.10;68.80;;;;;;4974418;28;991;-70
2023/07/10 05:34:11;;;;;;;;;;;21.10;68.80;;;;;;4974452;28;1292;-70
2023/07/10 05:36:36;;;;;;;;;;;21.20;68.80;;;;;;4974350;28;1902;-70
2023/07/10 05:39:02;;;;;;;;;;;21.20;68.80;;;;;;4974228;28;1422;-70
2023/07/10 05:41:28;;;;;;;;;;;21.10;68.80;;;;;;4974390;28;862;-71
2023/07/10 05:43:54;;;;;;;;;;;21.10;68.80;;;;;;4974038;28;1294;-71
2023/07/10 05:46:20;;;;;;;;;;;21.20;68.80;;;;;;4975736;28;864;-71
2023/07/10 05:48:45;;;;;;;;;;;21.20;68.80;;;;;;4974062;28;962;-71
2023/07/10 05:51:10;;;;;;;;;;;21.20;68.80;;;;;;4974290;28;839;-71
2023/07/10 05:53:36;;;;;;;;;;;21.10;68.80;;;;;;4973560;28;1272;-71
2023/07/10 05:56:02;;;;;;;;;;;21.20;68.80;;;;;;4972756;28;927;-71
2023/07/10 05:58:28;;;;;;;;;;;21.20;68.80;;;;;;4988197;28;1902;-71
2023/07/10 06:00:57;;;;;;;;;;;21.10;68.70;;;;;;4972955;28;919;-71
2023/07/10 06:03:22;;;;;;;;;;;21.10;68.80;;;;;;4970650;28;1288;-71
2023/07/10 06:05:55;;;;;;;;;;;21.10;68.80;;;;;;4972597;28;872;-72
2023/07/10 06:08:21;;;;;;;;;;;21.20;68.80;;;;;;4973190;28;820;-70
2023/07/10 06:10:46;;;;;;;;;;;21.20;68.80;;;;;;4985766;28;815;-72
2023/07/10 06:13:12;;;;;;;;;;;21.20;68.80;;;;;;4971177;28;1354;-69
2023/07/10 06:15:40;;;;;;;;;;;21.20;68.80;;;;;;4972415;28;2177;-70
2023/07/10 06:18:06;;;;;;;;;;;21.20;68.80;;;;;;4972587;28;1903;-69
2023/07/10 06:20:31;;;;;;;;;;;21.20;68.80;;;;;;4971036;28;1304;-69
2023/07/10 06:22:57;;;;;;;;;;;21.20;68.80;;;;;;4972643;28;1280;-69
2023/07/10 06:25:22;;;;;;;;;;;21.20;68.80;;;;;;4973281;28;1805;-70
2023/07/10 06:27:48;;;;;;;;;;;21.10;68.80;;;;;;4972938;28;969;-70
2023/07/10 06:30:14;;;;;;;;;;;21.10;68.80;;;;;;4973299;28;845;-72
2023/07/10 06:32:40;;;;;;;;;;;21.10;68.80;;;;;;4970614;28;841;-73
2023/07/10 06:35:05;;;;;;;;;;;21.10;68.80;;;;;;4972224;28;1237;-70
2023/07/10 06:37:31;;;;;;;;;;;21.20;68.80;;;;;;4971105;28;1957;-70
2023/07/10 06:40:06;;;;;;;;;;;21.20;68.80;;;;;;4967498;28;1554;-71
2023/07/10 06:42:32;;;;;;;;;;;21.20;68.80;;;;;;4964216;28;1839;-70
2023/07/10 06:44:57;;;;;;;;;;;21.20;68.80;;;;;;4972844;28;1281;-69
2023/07/10 06:47:23;;;;;;;;;;;21.20;68.80;;;;;;4972449;28;864;-67
2023/07/10 06:49:48;;;;;;;;;;;21.20;68.80;;;;;;4971973;28;1601;-68
2023/07/10 06:52:14;;;;;;;;;;;21.10;68.80;;;;;;4970166;28;1233;-68
2023/07/10 06:54:39;;;;;;;;;;;21.20;68.80;;;;;;4970244;28;1357;-68
2023/07/10 06:57:05;;;;;;;;;;;21.20;68.90;;;;;;4970567;28;1908;-68
2023/07/10 06:59:30;;;;;;;;;;;21.20;68.80;;;;;;4969237;28;880;-68
2023/07/10 07:01:55;;;;;;;;;;;21.20;68.80;;;;;;4971780;28;858;-68
2023/07/10 07:04:21;;;;;;;;;;;21.10;68.80;;;;;;4986896;28;1271;-68
2023/07/10 07:06:48;;;;;;;;;;;21.10;69.20;;;;;;4972612;28;1149;-68
2023/07/10 07:09:15;;;;;;;;;;;21.10;68.80;;;;;;4972139;28;861;-68
2023/07/10 07:11:41;;;;;;;;;;;21.20;68.80;;;;;;4972358;28;898;-68
2023/07/10 07:14:06;;;;;;;;;;;21.20;68.90;;;;;;4971911;28;1204;-68
2023/07/10 07:16:31;;;;;;;;;;;21.20;68.90;;;;;;4970409;28;1907;-69
2023/07/10 07:18:57;;;;;;;;;;;21.20;68.80;;;;;;4971723;28;1424;-68
2023/07/10 07:21:22;;;;;;;;;;;21.20;68.90;;;;;;4972705;28;888;-69
2023/07/10 07:23:48;;;;;;;;;;;21.20;68.90;;;;;;4971716;28;1340;-68
2023/07/10 07:26:13;;;;;;;;;;;21.20;68.80;;;;;;4966778;28;876;-68
2023/07/10 07:28:39;;;;;;;;;;;21.10;68.80;;;;;;4968331;28;878;-69
2023/07/10 07:31:04;;;;;;;;;;;21.20;68.90;;;;;;4972371;28;892;-68
2023/07/10 07:33:30;;;;;;;;;;;21.20;68.90;;;;;;4971412;28;1364;-69
2023/07/10 07:35:58;;;;;;;;;;;21.20;68.80;;;;;;4967645;28;860;-71
2023/07/10 07:38:23;;;;;;;;;;;21.20;68.80;;;;;;4970015;28;1907;-71
2023/07/10 07:40:49;;;;;;;;;;;21.20;68.80;;;;;;4971754;28;864;-71
2023/07/10 07:43:15;;;;;;;;;;;21.20;68.90;;;;;;4970716;28;1285;-71
2023/07/10 07:45:48;;;;;;;;;;;21.20;68.90;;;;;;4971699;28;968;-70
2023/07/10 07:48:14;;;;;;;;;;;21.20;68.80;;;;;;4970428;28;967;-71
2023/07/10 07:50:39;;;;;;;;;;;21.20;68.90;;;;;;4959670;28;1559;-68
2023/07/10 07:53:05;;;;;;;;;;;21.20;68.80;;;;;;4976934;28;1291;-67
2023/07/10 07:55:30;;;;;;;;;;;21.20;68.80;;;;;;4972019;28;944;-67
2023/07/10 07:57:55;;;;;;;;;;;21.20;68.80;;;;;;4970201;28;1911;-67
2023/07/10 08:00:21;;;;;;;;;;;21.20;68.90;;;;;;4970018;28;880;-67
2023/07/10 08:02:46;;;;;;;;;;;21.20;68.80;;;;;;4971206;28;1355;-67
2023/07/10 08:05:12;;;;;;;;;;;21.20;68.90;;;;;;4968679;28;793;-69
2023/07/10 08:07:37;;;;;;;;;;;21.20;68.90;;;;;;4968937;28;836;-68
2023/07/10 08:10:03;;;;;;;;;;;21.20;68.90;;;;;;4970924;28;1190;-68
2023/07/10 08:12:30;;;;;;;;;;;21.20;68.90;;;;;;4970868;28;903;-71
2023/07/10 08:14:55;;;;;;;;;;;21.20;68.90;;;;;;4971365;28;1341;-70
2023/07/10 08:17:21;;;;;;;;;;;21.20;68.90;;;;;;4968458;28;2211;-70
2023/07/10 08:19:46;;;;;;;;;;;21.20;68.90;;;;;;4971949;28;1413;-68
2023/07/10 08:22:12;;;;;;;;;;;21.20;68.80;;;;;;4985821;28;1423;-68
2023/07/10 08:24:37;;;;;;;;;;;21.20;68.90;;;;;;4971033;28;1696;-68
2023/07/10 08:27:03;;;;;;;;;;;21.20;68.90;;;;;;4969865;28;1346;-68
2023/07/10 08:29:29;;;;;;;;;;;21.20;68.90;;;;;;4971815;28;952;-68
2023/07/10 08:31:55;;;;;;;;;;;21.20;68.90;;;;;;4985382;28;895;-68
2023/07/10 08:34:21;;;;;;;;;;;21.20;68.90;;;;;;4970772;28;1264;-68
2023/07/10 08:36:46;;;;;;;;;;;21.20;68.90;;;;;;4986257;28;1979;-68
2023/07/10 08:39:12;;;;;;;;;;;21.20;68.90;;;;;;4971448;28;1022;-68
2023/07/10 08:41:37;;;;;;;;;;;21.20;68.90;;;;;;4971459;28;945;-68
2023/07/10 08:44:03;;;;;;;;;;;21.20;68.90;;;;;;4971114;28;1279;-68
2023/07/10 08:46:28;;;;;;;;;;;21.20;68.90;;;;;;4985600;28;1192;-68
2023/07/10 08:49:15;;;;;;;;;;;21.20;68.90;;;;;;4986004;28;859;-68
2023/07/10 08:51:40;;;;;;;;;;;21.20;68.90;;;;;;4988678;28;852;-68
2023/07/10 08:54:12;;;;;;;;;;;21.20;68.90;;;;;;4974544;28;1350;-68
2023/07/10 08:56:42;;;;;;;;;;;21.20;68.90;;;;;;4989501;28;1965;-67
2023/07/10 08:59:13;;;;;;;;;;;21.20;68.90;;;;;;4975089;28;820;-69
2023/07/10 09:01:39;;;;;;;;;;;21.20;68.90;;;;;;4974299;28;1246;-68
2023/07/10 09:04:05;;;;;;;;;;;21.20;68.90;;;;;;4971431;28;1289;-68
2023/07/10 09:06:30;;;;;;;;;;;21.20;68.90;;;;;;4973649;28;1730;-69
2023/07/10 09:08:55;;;;;;;;;;;21.20;68.90;;;;;;4975040;28;804;-69
2023/07/10 09:11:21;;;;;;;;;;;21.20;68.90;;;;;;4974244;28;939;-70
2023/07/10 09:13:49;;;;;;;;;;;21.20;68.90;;;;;;4973389;28;1351;-69
2023/07/10 09:16:16;;;;;;;;;;;21.20;68.90;;;;;;4974866;28;1074;-70
2023/07/10 09:18:55;;;;;;;;;;;21.20;68.90;;;;;;4989322;28;1902;-70
2023/07/10 09:21:22;;;;;;;;;;;21.20;68.90;;;;;;4974223;28;1043;-69
2023/07/10 09:23:48;;;;;;;;;;;21.20;68.90;;;;;;4989354;28;1271;-70
2023/07/10 09:26:18;;;;;;;;;;;21.20;68.90;;;;;;4974094;28;884;-70
2023/07/10 09:28:46;;;;;;;;;;;21.20;68.90;;;;;;4988802;28;1383;-69
2023/07/10 09:31:20;;;;;;;;;;;21.20;68.90;;;;;;4987987;28;1292;-68
2023/07/10 09:33:52;;;;;;;;;;;21.20;68.90;;;;;;4965803;28;1685;-70
2023/07/10 09:36:18;;;;;;;;;;;21.20;68.90;;;;;;4970341;28;1630;-69
2023/07/10 09:38:45;;;;;;;;;;;21.20;68.90;;;;;;4973623;28;1903;-69
2023/07/10 09:41:17;;;;;;;;;;;21.20;68.90;;;;;;4972172;28;1427;-70
2023/07/10 09:43:48;;;;;;;;;;;21.20;68.90;;;;;;4987500;28;1409;-69
2023/07/10 09:46:13;;;;;;;;;;;21.20;68.90;;;;;;4971424;28;1579;-69
2023/07/10 09:48:38;;;;;;;;;;;21.20;68.90;;;;;;4972397;28;1334;-69
2023/07/10 09:51:05;;;;;;;;;;;21.20;68.90;;;;;;4971583;28;1348;-69
2023/07/10 09:53:32;;;;;;;;;;;21.20;68.90;;;;;;4986310;28;1403;-69
2023/07/10 09:55:57;;;;;;;;;;;21.20;68.90;;;;;;4968626;28;1425;-68
2023/07/10 09:58:23;;;;;;;;;;;21.20;68.90;;;;;;4969972;28;1899;-69
2023/07/10 10:00:48;;;;;;;;;;;21.20;68.90;;;;;;4970779;28;1374;-69
2023/07/10 10:03:16;;;;;;;;;;;21.20;68.90;;;;;;4970378;28;1388;-70
2023/07/10 10:05:42;;;;;;;;;;;21.20;68.90;;;;;;4987042;28;1460;-69
2023/07/10 10:08:26;;;;;;;;;;;21.20;68.90;;;;;;4971026;28;1428;-69
2023/07/10 10:11:05;;;;;;;;;;;21.20;68.90;;;;;;4970417;28;1331;-67
2023/07/10 10:13:31;;;;;;;;;;;21.20;68.90;;;;;;4970562;28;1445;-69
2023/07/10 10:16:03;;;;;;;;;;;21.20;68.90;;;;;;4970943;28;1484;-67
2023/07/10 10:18:47;;;;;;;;;;;21.20;68.90;;;;;;4969134;28;2177;-67
2023/07/10 10:21:14;;;;;;;;;;;21.20;69.00;;;;;;4968080;28;1424;-66
2023/07/10 10:23:40;;;;;;;;;;;21.20;68.90;;;;;;4985525;28;1385;-67
2023/07/10 10:26:14;;;;;;;;;;;21.20;69.00;;;;;;4982428;28;1393;-68
2023/07/10 10:29:00;;;;;;;;;;;21.20;68.90;;;;;;4969839;28;1106;-68
2023/07/10 10:31:26;;;;;;;;;;;21.20;68.90;;;;;;4971725;28;1003;-68
2023/07/10 10:33:55;;;;;;;;;;;21.20;68.90;;;;;;4969515;28;1359;-68
2023/07/10 10:36:23;;;;;;;;;;;21.20;69.00;;;;;;4972713;28;1011;-68
2023/07/10 10:38:51;;;;;;;;;;;21.20;68.90;;;;;;4971879;28;1968;-68
2023/07/10 10:41:20;;;;;;;;;;;21.20;68.90;;;;;;4979222;28;4192;-67
2023/07/10 10:44:00;;;;;;;;;;;21.20;68.90;;;;;;4972141;28;1347;-67
2023/07/10 10:46:28;;;;;;;;;;;21.20;68.90;;;;;;4987509;28;831;-68
2023/07/10 10:48:54;;;;;;;;;;;21.20;68.90;;;;;;4969581;28;926;-68
2023/07/10 10:51:29;;;;;;;;;;;21.20;68.90;;;;;;4972360;28;885;-67
2023/07/10 10:54:13;;;;;;;;;;;21.20;68.90;;;;;;4972282;28;1228;-68
2023/07/10 10:56:41;;;;;;;;;;;21.20;69.00;;;;;;4970222;28;1974;-68
2023/07/10 10:59:18;;;;;;;;;;;21.20;68.90;;;;;;4986825;28;831;-67
2023/07/10 11:01:44;;;;;;;;;;;21.20;68.90;;;;;;4972346;28;918;-67
2023/07/10 11:04:10;;;;;;;;;;;21.20;68.90;;;;;;4972373;28;1347;-68
2023/07/10 11:06:38;;;;;;;;;;;21.20;69.00;;;;;;4972166;28;852;-68
2023/07/10 11:09:07;;;;;;;;;;;21.20;68.90;;;;;;4977741;28;1332;-68
2023/07/10 11:11:34;;;;;;;;;;;21.20;68.90;;;;;;4970674;28;813;-68
2023/07/10 11:13:59;;;;;;;;;;;21.20;68.90;;;;;;4971776;28;1358;-68
2023/07/10 11:16:26;;;;;;;;;;;21.20;68.90;;;;;;4967021;28;908;-68
2023/07/10 11:18:51;;;;;;;;;;;21.20;68.90;;;;;;4969157;28;1082;-68
2023/07/10 11:21:17;;;;;;;;;;;21.20;68.90;;;;;;4986385;28;943;-68
2023/07/10 11:23:42;;;;;;;;;;;21.20;69.00;;;;;;4970066;28;1292;-68
2023/07/10 11:26:17;;;;;;;;;;;21.20;69.00;;;;;;4971623;28;915;-68
2023/07/10 11:28:52;;;;;;;;;;;21.20;68.90;;;;;;4986903;28;1367;-67
2023/07/10 11:31:30;;;;;;;;;;;21.20;68.90;;;;;;4970993;28;896;-68
2023/07/10 11:34:04;;;;;;;;;;;21.20;69.70;;;;;;4971734;28;1365;-68
2023/07/10 11:36:33;;;;;;;;;;;21.20;68.90;;;;;;4971514;28;1965;-68
2023/07/10 11:38:58;;;;;;;;;;;21.20;68.90;;;;;;4970677;28;1033;-68
2023/07/10 11:41:34;;;;;;;;;;;21.20;69.00;;;;;;4993965;28;1425;-68
2023/07/10 11:44:21;;;;;;;;;;;21.20;68.90;;;;;;4982998;28;1440;-69
2023/07/10 11:47:00;;;;;;;;;;;21.20;68.90;;;;;;4971415;28;968;-68
2023/07/10 11:49:34;;;;;;;;;;;21.20;68.90;;;;;;4986197;28;836;-68
2023/07/10 11:52:15;;;;;;;;;;;21.20;68.90;;;;;;4970200;28;925;-68
2023/07/10 11:54:41;;;;;;;;;;;21.20;68.90;;;;;;4971170;28;1371;-68
2023/07/10 11:57:06;;;;;;;;;;;21.20;69.00;;;;;;4969336;28;1965;-69
2023/07/10 11:59:33;;;;;;;;;;;21.30;69.00;;;;;;4970561;28;871;-69
2023/07/10 12:01:58;;;;;;;;;;;21.20;68.90;;;;;;4985302;28;944;-68
2023/07/10 12:04:25;;;;;;;;;;;21.20;69.00;;;;;;4970186;28;1267;-67
2023/07/10 12:06:50;;;;;;;;;;;21.20;68.90;;;;;;4970060;28;922;-69
2023/07/10 12:09:16;;;;;;;;;;;21.20;68.90;;;;;;4970164;28;1428;-69
2023/07/10 12:11:42;;;;;;;;;;;21.30;69.00;;;;;;4971228;28;927;-68
2023/07/10 12:14:11;;;;;;;;;;;21.30;69.00;;;;;;4971088;28;1348;-68
2023/07/10 12:16:45;;;;;;;;;;;21.20;68.90;;;;;;4971718;28;1903;-68
2023/07/10 12:19:15;;;;;;;;;;;21.30;69.00;;;;;;4971673;28;1312;-69
2023/07/10 12:21:40;;;;;;;;;;;21.20;68.90;;;;;;4986098;28;1017;-69
2023/07/10 12:24:09;;;;;;;;;;;21.20;68.90;;;;;;4971084;28;1241;-69
2023/07/10 12:26:36;;;;;;;;;;;21.20;68.90;;;;;;4976851;28;1332;-69
2023/07/10 12:29:02;;;;;;;;;;;21.30;69.00;;;;;;4977551;28;1410;-69
2023/07/10 12:31:28;;;;;;;;;;;21.30;69.00;;;;;;4977487;28;871;-69
2023/07/10 12:33:53;;;;;;;;;;;21.20;68.90;;;;;;4971695;28;1299;-69
2023/07/10 12:36:23;;;;;;;;;;;21.30;69.00;;;;;;4973679;28;1276;-70
2023/07/10 12:38:49;;;;;;;;;;;21.20;68.90;;;;;;4990888;28;1984;-69
2023/07/10 12:41:16;;;;;;;;;;;21.30;69.00;;;;;;4972761;28;1473;-69
2023/07/10 12:43:45;;;;;;;;;;;21.20;68.90;;;;;;4974667;28;1368;-69
2023/07/10 12:46:17;;;;;;;;;;;21.30;69.00;;;;;;4971989;28;1773;-69
2023/07/10 12:48:43;;;;;;;;;;;21.20;68.90;;;;;;4977433;28;1325;-69
2023/07/10 12:51:12;;;;;;;;;;;21.30;69.00;;;;;;4974751;28;912;-69
2023/07/10 12:53:41;;;;;;;;;;;21.20;68.90;;;;;;4974521;28;1565;-68
2023/07/10 12:56:08;;;;;;;;;;;21.30;69.10;;;;;;4973929;28;1323;-68
2023/07/10 12:58:34;;;;;;;;;;;21.30;69.00;;;;;;4989394;28;1969;-71
2023/07/10 13:01:18;;;;;;;;;;;21.30;69.00;;;;;;4969087;28;1501;-69
2023/07/10 13:03:43;;;;;;;;;;;21.30;69.00;;;;;;4972580;28;1398;-68
2023/07/10 13:06:09;;;;;;;;;;;21.30;69.00;;;;;;4990113;28;1297;-69
2023/07/10 13:08:35;;;;;;;;;;;21.30;69.00;;;;;;4974656;28;1382;-69
2023/07/10 13:11:01;;;;;;;;;;;21.30;69.00;;;;;;4975061;28;1220;-69
2023/07/10 13:13:28;;;;;;;;;;;21.30;69.00;;;;;;4971996;28;2171;-69
2023/07/10 13:15:53;;;;;;;;;;;21.30;69.00;;;;;;4991797;28;1445;-69
2023/07/10 13:18:23;;;;;;;;;;;21.30;69.00;;;;;;4990827;28;1971;-68
2023/07/10 13:20:48;;;;;;;;;;;21.30;69.00;;;;;;4975843;28;2103;-68
2023/07/10 13:23:14;;;;;;;;;;;21.30;69.00;;;;;;4975176;28;1445;-68
2023/07/10 13:25:39;;;;;;;;;;;21.30;69.00;;;;;;4975571;28;1756;-68
2023/07/10 13:28:13;;;;;;;;;;;21.30;69.00;;;;;;4977216;28;1246;-69
2023/07/10 13:30:39;;;;;;;;;;;21.30;69.00;;;;;;4975497;28;1055;-69
2023/07/10 13:33:11;;;;;;;;;;;21.30;69.00;;;;;;4976859;28;1284;-69
2023/07/10 13:35:36;;;;;;;;;;;21.30;69.00;;;;;;4991225;28;867;-69
2023/07/10 13:38:04;;;;;;;;;;;21.30;69.10;;;;;;4972482;28;1969;-69
2023/07/10 13:40:30;;;;;;;;;;;21.30;69.00;;;;;;4972506;28;880;-69
2023/07/10 13:42:56;;;;;;;;;;;21.30;69.10;;;;;;4970868;28;1269;-68
2023/07/10 13:45:22;;;;;;;;;;;21.30;69.00;;;;;;4973677;28;1018;-68
2023/07/10 13:47:50;;;;;;;;;;;21.30;69.00;;;;;;4973034;28;1646;-68
2023/07/10 13:50:18;;;;;;;;;;;21.30;69.00;;;;;;4971874;28;888;-68
2023/07/10 13:52:44;;;;;;;;;;;21.30;69.00;;;;;;4971727;28;911;-67
2023/07/10 13:55:11;;;;;;;;;;;21.30;69.00;;;;;;4972381;28;1331;-68
2023/07/10 13:57:36;;;;;;;;;;;21.30;69.80;;;;;;4988796;28;1965;-68
2023/07/10 14:00:02;;;;;;;;;;;21.30;69.00;;;;;;4973427;28;1071;-68
2023/07/10 14:02:34;;;;;;;;;;;21.30;69.10;;;;;;4974050;28;1153;-68
2023/07/10 14:05:00;;;;;;;;;;;21.30;69.00;;;;;;4973142;28;1380;-68
2023/07/10 14:07:26;;;;;;;;;;;21.30;69.10;;;;;;4971476;28;968;-66
2023/07/10 14:09:58;;;;;;;;;;;21.30;69.10;;;;;;4986879;28;871;-69
2023/07/10 14:12:23;;;;;;;;;;;21.30;69.10;;;;;;4987352;28;929;-69
2023/07/10 14:14:49;;;;;;;;;;;21.30;69.00;;;;;;4972301;28;1275;-68
2023/07/10 14:17:21;;;;;;;;;;;21.30;69.10;;;;;;4971866;28;1958;-69
2023/07/10 14:19:49;;;;;;;;;;;21.30;69.10;;;;;;4987837;28;1470;-69
2023/07/10 14:22:15;;;;;;;;;;;21.30;69.10;;;;;;4971262;28;887;-69
2023/07/10 14:24:42;;;;;;;;;;;21.30;69.10;;;;;;4972278;28;1298;-70
2023/07/10 14:27:14;;;;;;;;;;;21.30;69.10;;;;;;4972793;28;1273;-69
2023/07/10 14:29:40;;;;;;;;;;;21.30;69.00;;;;;;4973112;28;967;-69
2023/07/10 14:32:24;;;;;;;;;;;21.30;69.10;;;;;;4972920;28;899;-70